createdAt,value
2018-11-25T00:00:30.429Z,101334.19
2018-11-25T00:03:35.916Z,101331.22
2018-11-25T00:06:42.599Z,101320.61
2018-11-25T00:09:46.726Z,101319.05
2018-11-25T00:12:52.214Z,101317.02
2018-11-25T00:15:57.559Z,101315.28
2018-11-25T00:19:02.986Z,101312.70
2018-11-25T00:22:08.502Z,101312.15
2018-11-25T00:25:15.311Z,101316.86
2018-11-25T00:28:20.768Z,101310.02
2018-11-25T00:31:26.476Z,101312.45
2018-11-25T00:34:31.959Z,101308.97
2018-11-25T00:37:37.390Z,101310.10
2018-11-25T00:40:42.836Z,101303.09
2018-11-25T00:43:48.382Z,101306.56
2018-11-25T00:46:53.815Z,101304.66
2018-11-25T00:49:59.206Z,101308.86
2018-11-25T00:53:04.719Z,101308.51
2018-11-25T00:56:10.183Z,101316.20
2018-11-25T00:59:15.650Z,101310.59
2018-11-25T01:02:21.137Z,101306.89
2018-11-25T01:05:27.059Z,101296.93
2018-11-25T01:08:32.536Z,101304.14
2018-11-25T01:11:38.134Z,101308.52
2018-11-25T01:14:43.592Z,101310.93
2018-11-25T01:17:49.115Z,101315.30
2018-11-25T01:20:54.497Z,101312.68
2018-11-25T01:24:00.040Z,101313.97
2018-11-25T01:27:06.464Z,101310.53
2018-11-25T01:30:13.915Z,101308.69
2018-11-25T01:33:19.463Z,101311.27
2018-11-25T01:36:25.013Z,101312.44
2018-11-25T01:39:30.460Z,101311.04
2018-11-25T01:42:36.219Z,101308.92
2018-11-25T01:45:42.386Z,101306.67
2018-11-25T01:48:47.833Z,101307.13
2018-11-25T01:51:53.463Z,101311.55
2018-11-25T01:54:58.927Z,101307.23
2018-11-25T01:58:04.369Z,101308.52
2018-11-25T02:01:09.951Z,101306.78
2018-11-25T02:04:15.383Z,101305.78
2018-11-25T02:07:20.807Z,101303.48
2018-11-25T02:10:26.389Z,101304.16
2018-11-25T02:13:31.735Z,101310.55
2018-11-25T02:16:37.166Z,101297.27
2018-11-25T02:19:42.654Z,101296.36
2018-11-25T02:22:48.155Z,101287.42
2018-11-25T02:25:53.755Z,101293.23
2018-11-25T02:28:59.154Z,101294.09
2018-11-25T02:32:04.628Z,101288.02
2018-11-25T02:35:12.315Z,101285.78
2018-11-25T02:38:17.774Z,101289.70
2018-11-25T02:41:23.328Z,101288.81
2018-11-25T02:44:28.776Z,101286.95
2018-11-25T02:47:34.219Z,101287.02
2018-11-25T02:50:39.672Z,101282.48
2018-11-25T02:53:45.203Z,101284.89
2018-11-25T02:56:50.565Z,101286.63
2018-11-25T02:59:56.019Z,101284.44
2018-11-25T03:03:01.500Z,101279.73
2018-11-25T03:06:07.125Z,101277.55
2018-11-25T03:09:12.566Z,101278.33
2018-11-25T03:12:18.117Z,101281.06
2018-11-25T03:15:23.631Z,101277.71
2018-11-25T03:18:28.990Z,101277.26
2018-11-25T03:21:34.467Z,101275.38
2018-11-25T03:24:39.826Z,101285.34
2018-11-25T03:27:45.259Z,101279.74
2018-11-25T03:30:50.627Z,101275.53
2018-11-25T03:33:56.172Z,101278.91
2018-11-25T03:37:01.611Z,101278.56
2018-11-25T03:40:09.741Z,101281.53
2018-11-25T03:43:15.242Z,101277.67
2018-11-25T03:46:20.619Z,101279.41
2018-11-25T03:49:26.059Z,101275.48
2018-11-25T03:52:31.539Z,101281.03
2018-11-25T03:55:36.965Z,101274.59
2018-11-25T03:58:42.311Z,101274.92
2018-11-25T04:01:47.862Z,101279.62
2018-11-25T04:04:53.278Z,101275.64
2018-11-25T04:07:58.663Z,101276.44
2018-11-25T04:11:04.499Z,101272.45
2018-11-25T04:14:09.943Z,101276.27
2018-11-25T04:17:15.420Z,101269.43
2018-11-25T04:20:21.929Z,101270.38
2018-11-25T04:23:27.574Z,101276.83
2018-11-25T04:26:32.958Z,101276.81
2018-11-25T04:29:38.407Z,101270.16
2018-11-25T04:32:45.648Z,101271.22
2018-11-25T04:35:51.176Z,101265.34
2018-11-25T04:38:56.598Z,101261.93
2018-11-25T04:42:02.091Z,101266.49
2018-11-25T04:45:13.290Z,101267.47
2018-11-25T04:48:18.699Z,101269.93
2018-11-25T04:51:24.175Z,101266.17
2018-11-25T04:54:29.575Z,101257.61
2018-11-25T04:57:35.175Z,101262.44
2018-11-25T05:00:40.607Z,101260.31
2018-11-25T05:03:46.130Z,101259.07
2018-11-25T05:06:51.631Z,101266.91
2018-11-25T05:09:57.047Z,101259.19
2018-11-25T05:13:02.612Z,101265.13
2018-11-25T05:16:08.047Z,101260.30
2018-11-25T05:19:13.519Z,101263.66
2018-11-25T05:22:19.082Z,101266.63
2018-11-25T05:25:24.774Z,101264.89
2018-11-25T05:28:30.139Z,101266.17
2018-11-25T05:31:35.603Z,101266.75
2018-11-25T05:34:41.028Z,101270.60
2018-11-25T05:37:46.426Z,101273.20
2018-11-25T05:40:52.411Z,101266.01
2018-11-25T05:43:57.914Z,101263.82
2018-11-25T05:47:03.359Z,101267.70
2018-11-25T05:50:13.916Z,101262.20
2018-11-25T05:53:19.371Z,101265.13
2018-11-25T05:56:24.807Z,101269.39
2018-11-25T05:59:30.303Z,101271.61
2018-11-25T06:02:35.843Z,101274.53
2018-11-25T06:05:41.252Z,101278.91
2018-11-25T06:08:46.610Z,101283.67
2018-11-25T06:11:52.067Z,101284.44
2018-11-25T06:14:57.492Z,101281.09
2018-11-25T06:18:02.867Z,101286.63
2018-11-25T06:21:08.306Z,101285.00
2018-11-25T06:24:13.759Z,101285.06
2018-11-25T06:27:19.230Z,101287.58
2018-11-25T06:30:24.639Z,101288.63
2018-11-25T06:33:31.047Z,101288.03
2018-11-25T06:36:36.456Z,101293.97
2018-11-25T06:39:41.923Z,101287.30
2018-11-25T06:42:47.889Z,101288.97
2018-11-25T06:45:53.306Z,101295.24
2018-11-25T06:48:58.831Z,101296.20
2018-11-25T06:52:04.252Z,101301.02
2018-11-25T06:55:11.888Z,101302.25
2018-11-25T06:58:17.255Z,101300.53
2018-11-25T07:01:22.711Z,101309.59
2018-11-25T07:04:28.197Z,101311.34
2018-11-25T07:07:33.630Z,101309.55
2018-11-25T07:10:39.055Z,101315.98
2018-11-25T07:13:44.518Z,101320.86
2018-11-25T07:16:49.950Z,101323.72
2018-11-25T07:19:55.424Z,101320.30
2018-11-25T07:23:00.976Z,101318.16
2018-11-25T07:26:06.560Z,101320.63
2018-11-25T07:29:11.997Z,101324.16
2018-11-25T07:32:17.495Z,101320.16
2018-11-25T07:35:24.626Z,101322.89
2018-11-25T07:38:29.983Z,101326.17
2018-11-25T07:41:35.707Z,101328.19
2018-11-25T07:44:41.167Z,101332.10
2018-11-25T07:47:46.610Z,101337.35
2018-11-25T07:50:52.063Z,101333.44
2018-11-25T07:53:57.607Z,101338.83
2018-11-25T07:57:03.053Z,101339.73
2018-11-25T08:00:14.240Z,101342.41
2018-11-25T08:03:19.721Z,101342.30
2018-11-25T08:06:25.111Z,101345.09
2018-11-25T08:09:30.512Z,101344.31
2018-11-25T08:12:36.071Z,101346.33
2018-11-25T08:15:41.431Z,101347.96
2018-11-25T08:18:46.850Z,101344.54
2018-11-25T08:21:52.400Z,101341.80
2018-11-25T08:24:57.835Z,101345.72
2018-11-25T08:28:03.283Z,101340.05
2018-11-25T08:31:08.828Z,101347.66
2018-11-25T08:34:14.298Z,101339.92
2018-11-25T08:37:19.638Z,101336.02
2018-11-25T08:40:26.282Z,101337.23
2018-11-25T08:43:31.763Z,101343.16
2018-11-25T08:46:37.204Z,101347.48
2018-11-25T08:49:42.691Z,101349.16
2018-11-25T08:52:50.172Z,101341.31
2018-11-25T08:55:55.604Z,101350.73
2018-11-25T08:59:01.143Z,101346.27
2018-11-25T09:02:07.755Z,101356.15
2018-11-25T09:05:14.984Z,101352.27
2018-11-25T09:08:20.395Z,101359.10
2018-11-25T09:11:25.910Z,101355.11
2018-11-25T09:14:31.396Z,101354.71
2018-11-25T09:17:36.787Z,101357.22
2018-11-25T09:20:42.254Z,101356.63
2018-11-25T09:23:47.803Z,101352.66
2018-11-25T09:26:53.291Z,101359.58
2018-11-25T09:29:58.768Z,101362.34
2018-11-25T09:33:04.495Z,101364.39
2018-11-25T09:36:12.063Z,101365.55
2018-11-25T09:39:17.418Z,101365.66
2018-11-25T09:42:22.999Z,101358.68
2018-11-25T09:45:28.414Z,101354.46
2018-11-25T09:48:33.748Z,101354.76
2018-11-25T09:51:39.131Z,101356.88
2018-11-25T09:54:44.478Z,101353.90
2018-11-25T09:57:52.614Z,101355.50
2018-11-25T10:00:57.975Z,101354.92
2018-11-25T10:04:03.368Z,101350.45
2018-11-25T10:07:08.731Z,101348.20
2018-11-25T10:10:18.267Z,101341.38
2018-11-25T10:13:23.713Z,101342.53
2018-11-25T10:16:29.059Z,101334.55
2018-11-25T10:19:34.413Z,101341.28
2018-11-25T10:22:39.833Z,101336.80
2018-11-25T10:25:45.219Z,101331.01
2018-11-25T10:28:50.563Z,101332.39
2018-11-25T10:31:56.157Z,101329.47
2018-11-25T10:35:01.684Z,101327.16
2018-11-25T10:38:07.275Z,101329.47
2018-11-25T10:41:12.623Z,101331.94
2018-11-25T10:44:18.301Z,101334.36
2018-11-25T10:47:23.519Z,101330.29
2018-11-25T10:50:29.287Z,101327.35
2018-11-25T10:53:34.742Z,101325.84
2018-11-25T10:56:40.609Z,101322.34
2018-11-25T10:59:48.386Z,101322.88
2018-11-25T11:02:59.251Z,101320.04
2018-11-25T11:06:10.127Z,101325.21
2018-11-25T11:09:15.894Z,101323.39
2018-11-25T11:12:21.661Z,101324.02
2018-11-25T11:15:27.434Z,101321.55
2018-11-25T11:18:32.800Z,101314.08
2018-11-25T11:21:38.272Z,101321.16
2018-11-25T11:24:43.955Z,101310.55
2018-11-25T11:27:49.431Z,101309.91
2018-11-25T11:30:55.083Z,101308.45
2018-11-25T11:34:00.714Z,101316.11
2018-11-25T11:37:06.555Z,101313.94
2018-11-25T11:40:13.965Z,101319.13
2018-11-25T11:43:19.671Z,101317.64
2018-11-25T11:46:25.294Z,101314.66
2018-11-25T11:49:30.654Z,101314.23
2018-11-25T11:52:36.210Z,101316.50
2018-11-25T11:55:41.596Z,101309.19
2018-11-25T11:58:47.046Z,101311.80
2018-11-25T12:01:52.531Z,101309.04
2018-11-25T12:04:57.979Z,101318.11
2018-11-25T12:08:03.443Z,101319.60
2018-11-25T12:11:08.974Z,101320.10
2018-11-25T12:14:14.323Z,101326.70
2018-11-25T12:17:19.773Z,101326.76
2018-11-25T12:20:26.399Z,101325.27
2018-11-25T12:23:31.835Z,101322.69
2018-11-25T12:26:37.258Z,101324.57
2018-11-25T12:29:42.792Z,101324.77
2018-11-25T12:32:50.858Z,101324.45
2018-11-25T12:35:56.359Z,101319.48
2018-11-25T12:39:02.354Z,101319.83
2018-11-25T12:42:07.869Z,101310.86
2018-11-25T12:45:16.882Z,101315.91
2018-11-25T12:48:22.524Z,101308.14
2018-11-25T12:51:58.583Z,101308.86
2018-11-25T12:55:03.936Z,101304.64
2018-11-25T12:58:09.344Z,101314.43
2018-11-25T13:01:14.739Z,101309.06
2018-11-25T13:04:20.096Z,101316.53
2018-11-25T13:07:25.480Z,101308.91
2018-11-25T13:10:30.860Z,101313.20
2018-11-25T13:13:36.314Z,101313.31
2018-11-25T13:16:41.672Z,101312.47
2018-11-25T13:19:46.999Z,101317.11
2018-11-25T13:22:52.428Z,101313.95
2018-11-25T13:25:57.787Z,101320.67
2018-11-25T13:29:03.211Z,101327.51
2018-11-25T13:32:08.670Z,101328.09
2018-11-25T13:35:14.066Z,101332.25
2018-11-25T13:38:19.499Z,101329.73
2018-11-25T13:41:24.891Z,101330.88
2018-11-25T13:44:30.310Z,101334.63
2018-11-25T13:47:35.740Z,101335.97
2018-11-25T13:50:41.139Z,101336.59
2018-11-25T13:53:46.559Z,101339.53
2018-11-25T13:56:51.926Z,101340.83
2018-11-25T13:59:57.532Z,101334.94
2018-11-25T14:03:03.887Z,101334.91
2018-11-25T14:06:14.560Z,101333.59
2018-11-25T14:09:20.004Z,101334.68
2018-11-25T14:12:25.518Z,101337.50
2018-11-25T14:15:31.268Z,101337.34
2018-11-25T14:18:36.749Z,101338.52
2018-11-25T14:21:42.222Z,101341.16
2018-11-25T14:24:47.651Z,101339.81
2018-11-25T14:27:55.983Z,101340.00
2018-11-25T14:31:01.356Z,101339.09
2018-11-25T14:34:07.163Z,101327.00
2018-11-25T14:37:12.673Z,101317.38
2018-11-25T14:40:20.017Z,101316.11
2018-11-25T14:43:25.447Z,101310.27
2018-11-25T14:46:30.883Z,101301.30
2018-11-25T14:49:36.235Z,101298.98
2018-11-25T14:52:42.491Z,101297.70
2018-11-25T14:55:47.847Z,101291.42
2018-11-25T14:58:53.283Z,101284.89
2018-11-25T15:01:58.735Z,101288.13
2018-11-25T15:05:04.156Z,101288.82
2018-11-25T15:08:11.289Z,101288.61
2018-11-25T15:11:16.759Z,101282.17
2018-11-25T15:14:22.119Z,101294.45
2018-11-25T15:17:27.455Z,101297.96
2018-11-25T15:20:32.839Z,101295.66
2018-11-25T15:23:38.385Z,101295.68
2018-11-25T15:26:43.743Z,101296.59
2018-11-25T15:29:49.096Z,101311.89
2018-11-25T15:32:54.434Z,101317.15
2018-11-25T15:35:59.775Z,101318.79
2018-11-25T15:39:09.403Z,101318.34
2018-11-25T15:42:14.779Z,101327.95
2018-11-25T15:45:20.158Z,101326.73
2018-11-25T15:48:30.444Z,101325.05
2018-11-25T15:51:35.848Z,101326.08
2018-11-25T15:54:41.204Z,101331.56
2018-11-25T15:57:46.555Z,101326.33
2018-11-25T16:00:51.915Z,101336.20
2018-11-25T16:03:57.567Z,101338.41
2018-11-25T16:07:03.067Z,101342.66
2018-11-25T16:10:12.868Z,101345.64
2018-11-25T16:13:18.247Z,101347.43
2018-11-25T16:16:23.643Z,101346.34
2018-11-25T16:19:28.951Z,101353.69
2018-11-25T16:22:34.626Z,101357.09
2018-11-25T16:25:47.263Z,101366.52
2018-11-25T16:28:55.919Z,101361.53
2018-11-25T16:32:01.320Z,101362.83
2018-11-25T16:35:08.727Z,101364.52
2018-11-25T16:38:14.100Z,101362.08
2018-11-25T16:41:19.532Z,101370.38
2018-11-25T16:44:24.876Z,101362.63
2018-11-25T16:47:30.231Z,101361.35
2018-11-25T16:50:35.619Z,101366.56
2018-11-25T16:53:41.003Z,101368.70
2018-11-25T16:56:46.379Z,101367.97
2018-11-25T16:59:51.743Z,101368.80
2018-11-25T17:02:57.139Z,101362.42
2018-11-25T17:06:02.619Z,101370.66
2018-11-25T17:09:12.010Z,101369.88
2018-11-25T17:12:17.387Z,101369.83
2018-11-25T17:15:24.819Z,101369.88
2018-11-25T17:18:30.182Z,101369.48
2018-11-25T17:21:35.551Z,101373.45
2018-11-25T17:24:40.907Z,101372.61
2018-11-25T17:27:46.328Z,101372.17
2018-11-25T17:30:51.688Z,101373.95
2018-11-25T17:33:57.032Z,101378.70
2018-11-25T17:37:02.404Z,101382.59
2018-11-25T17:40:09.730Z,101381.79
2018-11-25T17:43:18.812Z,101383.53
2018-11-25T17:46:24.235Z,101387.89
2018-11-25T17:49:29.564Z,101392.25
2018-11-25T17:52:34.978Z,101393.98
2018-11-25T17:55:40.350Z,101388.48
2018-11-25T17:58:45.691Z,101399.23
2018-11-25T18:01:51.062Z,101391.10
2018-11-25T18:04:56.428Z,101395.76
2018-11-25T18:08:01.780Z,101393.19
2018-11-25T18:11:07.887Z,101395.80
2018-11-25T18:14:13.220Z,101395.80
2018-11-25T18:17:18.564Z,101400.87
2018-11-25T18:20:24.692Z,101403.84
2018-11-25T18:23:30.059Z,101405.76
2018-11-25T18:26:35.446Z,101403.98
2018-11-25T18:29:40.771Z,101413.79
2018-11-25T18:32:46.683Z,101423.25
2018-11-25T18:35:52.012Z,101422.41
2018-11-25T18:38:57.361Z,101421.66
2018-11-25T18:42:02.787Z,101419.05
2018-11-25T18:45:12.210Z,101419.03
2018-11-25T18:48:18.285Z,101421.58
2018-11-25T18:51:23.748Z,101421.47
2018-11-25T18:54:29.079Z,101426.13
2018-11-25T18:57:34.455Z,101424.80
2018-11-25T19:00:46.870Z,101427.91
2018-11-25T19:03:52.284Z,101424.09
2018-11-25T19:06:57.665Z,101429.11
2018-11-25T19:10:03.020Z,101430.41
2018-11-25T19:13:08.792Z,101433.81
2018-11-25T19:16:14.143Z,101436.44
2018-11-25T19:19:19.495Z,101435.00
2018-11-25T19:22:26.108Z,101426.83
2018-11-25T19:25:33.651Z,101429.01
2018-11-25T19:28:39.098Z,101427.27
2018-11-25T19:31:44.918Z,101431.99
2018-11-25T19:34:50.381Z,101436.65
2018-11-25T19:37:55.751Z,101432.77
2018-11-25T19:41:01.200Z,101429.75
2018-11-25T19:44:07.377Z,101428.02
2018-11-25T19:47:12.899Z,101438.23
2018-11-25T19:50:28.597Z,101441.55
2018-11-25T19:53:34.028Z,101447.69
2018-11-25T19:56:39.419Z,101448.14
2018-11-25T19:59:44.911Z,101442.14
2018-11-25T20:02:50.356Z,101438.38
2018-11-25T20:05:55.846Z,101446.10
2018-11-25T20:09:01.235Z,101445.97
2018-11-25T20:12:06.954Z,101441.30
2018-11-25T20:15:14.900Z,101435.70
2018-11-25T20:18:20.599Z,101441.30
2018-11-25T20:21:31.277Z,101447.70
2018-11-25T20:24:36.667Z,101435.59
2018-11-25T20:27:43.472Z,101432.48
2018-11-25T20:30:48.867Z,101436.39
2018-11-25T20:33:57.667Z,101445.85
2018-11-25T20:37:03.015Z,101441.95
2018-11-25T20:40:09.034Z,101446.30
2018-11-25T20:43:14.419Z,101458.75
2018-11-25T20:47:24.051Z,101448.92
2018-11-25T20:50:29.447Z,101453.08
2018-11-25T20:53:39.940Z,101444.06
2018-11-25T20:56:45.274Z,101450.57
2018-11-25T20:59:50.648Z,101453.98
2018-11-25T21:02:56.035Z,101446.16
2018-11-25T21:06:01.421Z,101450.80
2018-11-25T21:09:10.377Z,101452.94
2018-11-25T21:12:15.755Z,101452.60
2018-11-25T21:15:32.835Z,101455.61
2018-11-25T21:18:38.383Z,101454.48
2018-11-25T21:21:43.808Z,101459.28
2018-11-25T21:24:49.227Z,101458.80
2018-11-25T21:27:54.615Z,101459.68
2018-11-25T21:31:00.390Z,101455.91
2018-11-25T21:34:06.263Z,101450.37
2018-11-25T21:37:11.676Z,101445.36
2018-11-25T21:40:19.569Z,101451.81
2018-11-25T21:43:24.955Z,101451.41
2018-11-25T21:46:30.324Z,101452.25
2018-11-25T21:49:35.660Z,101452.69
2018-11-25T21:52:41.185Z,101450.69
2018-11-25T21:55:46.548Z,101445.15
2018-11-25T21:58:52.497Z,101448.22
2018-11-25T22:01:58.044Z,101452.25
2018-11-25T22:05:03.393Z,101454.37
2018-11-25T22:08:08.851Z,101448.78
2018-11-25T22:11:14.319Z,101450.95
2018-11-25T22:14:19.766Z,101451.00
2018-11-25T22:17:25.125Z,101459.57
2018-11-25T22:20:30.511Z,101458.64
2018-11-25T22:23:35.984Z,101451.72
2018-11-25T22:26:41.432Z,101450.55
2018-11-25T22:29:46.775Z,101452.73
2018-11-25T22:32:52.679Z,101452.77
2018-11-25T22:35:58.055Z,101448.91
2018-11-25T22:39:03.707Z,101445.09
2018-11-25T22:42:09.184Z,101443.87
2018-11-25T22:45:17.084Z,101452.92
2018-11-25T22:48:22.436Z,101452.89
2018-11-25T22:51:27.969Z,101455.42
2018-11-25T22:54:33.435Z,101456.30
2018-11-25T22:57:38.799Z,101452.86
2018-11-25T23:00:44.621Z,101457.19
2018-11-25T23:04:05.996Z,101457.23
2018-11-25T23:07:11.403Z,101456.75
2018-11-25T23:10:17.092Z,101457.16
2018-11-25T23:13:22.619Z,101462.30
2018-11-25T23:16:28.042Z,101461.45
2018-11-25T23:19:33.519Z,101465.64
2018-11-25T23:22:38.996Z,101473.73
2018-11-25T23:25:44.404Z,101476.30
2018-11-25T23:28:49.852Z,101469.38
2018-11-25T23:31:55.244Z,101468.73
2018-11-25T23:35:00.611Z,101468.23
2018-11-25T23:38:06.588Z,101469.93
2018-11-25T23:41:12.663Z,101473.30
2018-11-25T23:44:18.131Z,101469.79
2018-11-25T23:47:23.558Z,101467.62
2018-11-25T23:50:29.022Z,101477.08
2018-11-25T23:53:34.585Z,101474.46
2018-11-25T23:56:40.012Z,101472.41
2018-11-25T23:59:45.475Z,101480.05
